Time;durP1;ratioP1;P1;durP2;ratioP2;P2;SDS_P1;SDS_P2;PMS_P1;PMS_P2;Temp;Humidity;BMP_temperature;BMP_pressure;BME280_temperature;BME280_humidity;BME280_pressure;Samples;Min_cycle;Max_cycle;Signal;HPM_P1;HPM_P2
2021/10/29 00:01:35;;;;;;;11.57;9.63;;;;;;;10.41;71.88;100799.69;5034510;28;20079;-41
2021/10/29 00:04:00;;;;;;;13.13;10.70;;;;;;;10.38;71.67;100797.06;5026728;28;20025;-41
2021/10/29 00:06:26;;;;;;;12.82;10.43;;;;;;;10.39;71.91;100797.06;5029587;28;20029;-42
2021/10/29 00:08:51;;;;;;;12.38;10.35;;;;;;;10.38;71.97;100795.28;5034033;28;20033;-42
2021/10/29 00:11:16;;;;;;;14.93;10.50;;;;;;;10.38;71.76;100800.56;5021858;28;20038;-41
2021/10/29 00:13:42;;;;;;;12.98;9.85;;;;;;;10.38;71.60;100797.91;5017799;28;20060;-41
2021/10/29 00:16:07;;;;;;;11.80;10.23;;;;;;;10.37;71.63;100792.69;5033829;28;20071;-42
2021/10/29 00:18:33;;;;;;;12.80;11.02;;;;;;;10.37;71.61;100792.69;5031373;28;20112;-42
2021/10/29 00:20:58;;;;;;;14.95;11.07;;;;;;;10.36;71.92;100791.78;5014274;28;20036;-42
2021/10/29 00:23:25;;;;;;;13.00;10.45;;;;;;;10.36;71.88;100785.63;5012752;28;20057;-41
2021/10/29 00:25:50;;;;;;;13.55;10.98;;;;;;;10.35;71.59;100791.78;5013838;28;20492;-42
2021/10/29 00:28:15;;;;;;;13.95;9.90;;;;;;;10.36;71.51;100797.06;5013788;28;20033;-42
2021/10/29 00:30:41;;;;;;;13.32;10.30;;;;;;;10.36;71.78;100797.06;5013103;28;20080;-40
2021/10/29 00:33:06;;;;;;;13.18;10.68;;;;;;;10.36;71.41;100794.44;5013852;28;20026;-42
2021/10/29 00:35:32;;;;;;;12.30;10.43;;;;;;;10.35;71.68;100794.44;5013476;28;20099;-42
2021/10/29 00:37:57;;;;;;;13.25;9.93;;;;;;;10.33;71.52;100789.16;5013796;28;20026;-41
2021/10/29 00:40:23;;;;;;;13.40;10.48;;;;;;;10.33;71.68;100783.91;5013505;28;20026;-42
2021/10/29 00:42:48;;;;;;;13.93;10.82;;;;;;;10.32;71.40;100776.88;5025328;28;20409;-43
2021/10/29 00:45:13;;;;;;;13.32;10.02;;;;;;;10.32;71.46;100787.44;5029687;28;20473;-41
2021/10/29 00:47:39;;;;;;;14.43;10.52;;;;;;;10.32;71.39;100781.28;5014192;28;20026;-40
2021/10/29 00:50:05;;;;;;;13.25;9.90;;;;;;;10.31;71.33;100777.78;5014010;28;20083;-41
2021/10/29 00:52:31;;;;;;;14.00;10.55;;;;;;;10.30;71.42;100781.28;5033499;28;20030;-42
2021/10/29 00:54:56;;;;;;;12.20;10.10;;;;;;;10.31;71.25;100787.44;5042469;28;20037;-42
2021/10/29 00:57:22;;;;;;;15.20;11.02;;;;;;;10.29;71.36;100779.53;5021235;28;20034;-41
2021/10/29 00:59:48;;;;;;;15.75;11.00;;;;;;;10.27;71.57;100773.38;5041862;28;20033;-41
2021/10/29 01:02:14;;;;;;;13.15;10.60;;;;;;;10.29;71.16;100779.53;5025890;28;20489;-42
2021/10/29 01:04:39;;;;;;;12.43;9.77;;;;;;;10.27;71.25;100770.75;5011975;28;20029;-41
2021/10/29 01:07:04;;;;;;;13.65;10.85;;;;;;;10.29;71.26;100770.72;5030438;28;20037;-41
2021/10/29 01:09:30;;;;;;;15.45;10.40;;;;;;;10.29;71.31;100766.34;5032017;28;20021;-41
2021/10/29 01:11:56;;;;;;;13.75;10.15;;;;;;;10.27;71.28;100760.19;5025786;28;20101;-40
2021/10/29 01:14:21;;;;;;;15.00;10.82;;;;;;;10.26;71.56;100774.28;5027617;28;20033;-41
2021/10/29 01:16:46;;;;;;;14.57;10.38;;;;;;;10.25;71.09;100764.63;5020976;28;20032;-42
2021/10/29 01:19:12;;;;;;;13.88;10.60;;;;;;;10.26;71.52;100769.88;5042809;28;20029;-41
2021/10/29 01:21:37;;;;;;;12.20;9.65;;;;;;;10.26;71.32;100758.47;5044160;28;20437;-42
2021/10/29 01:24:03;;;;;;;15.30;10.95;;;;;;;10.25;71.16;100762.88;5032605;28;20022;-41
2021/10/29 01:26:29;;;;;;;13.50;10.20;;;;;;;10.25;71.15;100761.97;5024818;28;20032;-41
2021/10/29 01:28:55;;;;;;;12.07;9.95;;;;;;;10.24;71.47;100749.69;5032752;28;20397;-41
2021/10/29 01:31:20;;;;;;;16.65;10.45;;;;;;;10.24;71.18;100754.97;5026077;28;20620;-42
2021/10/29 01:33:46;;;;;;;13.95;10.73;;;;;;;10.23;71.43;100745.28;5026234;28;20028;-41
2021/10/29 01:36:11;;;;;;;14.40;10.73;;;;;;;10.23;71.46;100753.19;5019519;28;20113;-42
2021/10/29 01:38:38;;;;;;;16.50;11.43;;;;;;;10.23;71.48;100747.94;5012620;28;20022;-42
2021/10/29 01:41:05;;;;;;;13.98;10.57;;;;;;;10.21;71.22;100749.72;5012990;28;20469;-42
2021/10/29 01:43:36;;;;;;;13.55;10.45;;;;;;;10.22;71.32;100748.81;5027000;28;20061;-41
2021/10/29 01:46:02;;;;;;;14.57;9.73;;;;;;;10.22;71.14;100754.09;5032402;28;20029;-41
2021/10/29 01:48:27;;;;;;;14.15;10.68;;;;;;;10.22;71.36;100740.91;5016362;28;20026;-42
2021/10/29 01:50:52;;;;;;;14.52;10.82;;;;;;;10.20;70.98;100743.56;5038060;28;20035;-42
2021/10/29 01:53:18;;;;;;;12.18;9.88;;;;;;;10.21;71.46;100739.16;5044628;28;20017;-41
2021/10/29 01:55:43;;;;;;;14.60;11.07;;;;;;;10.21;71.23;100754.97;5033303;28;20033;-41
2021/10/29 01:58:08;;;;;;;15.10;10.52;;;;;;;10.19;71.23;100767.28;5032274;28;20064;-41
2021/10/29 02:00:34;;;;;;;14.68;10.50;;;;;;;10.17;71.27;100753.25;5032077;28;20029;-41
2021/10/29 02:03:00;;;;;;;13.70;9.73;;;;;;;10.18;71.35;100749.72;5032137;28;20029;-42
2021/10/29 02:05:25;;;;;;;13.55;10.23;;;;;;;10.19;71.30;100751.47;5024272;28;20397;-41
2021/10/29 02:07:50;;;;;;;15.35;10.57;;;;;;;10.18;71.31;100752.38;5032230;28;20110;-42
2021/10/29 02:10:16;;;;;;;12.38;9.80;;;;;;;10.17;71.19;100755.91;5033715;28;20024;-41
2021/10/29 02:12:41;;;;;;;14.77;10.88;;;;;;;10.17;71.06;100750.63;5038490;28;20036;-42
2021/10/29 02:15:07;;;;;;;13.00;10.15;;;;;;;10.16;71.13;100746.22;5030919;28;20029;-41
2021/10/29 02:17:32;;;;;;;14.38;10.93;;;;;;;10.14;71.38;100736.56;5030926;28;20056;-42
2021/10/29 02:19:59;;;;;;;11.82;9.70;;;;;;;10.14;71.31;100723.38;5025364;28;20045;-41
2021/10/29 02:22:24;;;;;;;15.00;10.18;;;;;;;10.14;71.43;100725.16;5020243;28;20401;-42
2021/10/29 02:24:50;;;;;;;16.23;10.90;;;;;;;10.12;71.32;100725.16;5038592;28;20025;-42
2021/10/29 02:27:15;;;;;;;13.75;10.85;;;;;;;10.13;71.20;100724.28;5014217;28;20401;-41
2021/10/29 02:29:40;;;;;;;16.08;10.68;;;;;;;10.13;71.21;100716.38;5035221;28;20020;-41
2021/10/29 02:32:06;;;;;;;14.43;10.18;;;;;;;10.12;71.23;100706.72;5035734;28;20510;-41
2021/10/29 02:34:31;;;;;;;11.88;9.77;;;;;;;10.11;71.42;100712.00;5017478;28;20056;-41
2021/10/29 02:36:56;;;;;;;11.35;9.15;;;;;;;10.12;71.33;100711.09;5023331;28;20057;-42
2021/10/29 02:39:22;;;;;;;13.02;10.57;;;;;;;10.09;71.29;100714.66;5013664;28;20112;-42
2021/10/29 02:41:47;;;;;;;14.55;10.32;;;;;;;10.11;71.40;100718.13;5040942;28;20025;-41
2021/10/29 02:44:12;;;;;;;14.95;10.80;;;;;;;10.11;70.97;100723.41;5049523;28;20025;-42
2021/10/29 02:46:38;;;;;;;13.95;10.48;;;;;;;10.11;71.02;100728.66;5020282;28;20026;-42
2021/10/29 02:49:04;;;;;;;13.23;9.93;;;;;;;10.11;71.07;100725.19;5033599;28;20109;-42
2021/10/29 02:51:30;;;;;;;13.07;10.13;;;;;;;10.11;70.93;100725.19;5050595;28;20064;-41
2021/10/29 02:53:56;;;;;;;13.35;9.63;;;;;;;10.09;71.09;100730.44;5037943;28;20444;-41
2021/10/29 02:56:22;;;;;;;12.85;10.02;;;;;;;10.07;71.17;100720.81;5031096;28;20545;-42
2021/10/29 02:58:47;;;;;;;13.10;9.65;;;;;;;10.07;71.34;100724.31;5031424;28;20104;-42
2021/10/29 03:01:12;;;;;;;13.05;9.70;;;;;;;10.07;71.00;100724.31;5030532;28;20032;-42
2021/10/29 03:03:37;;;;;;;15.55;10.35;;;;;;;10.06;71.35;100719.03;5031383;28;20378;-41
2021/10/29 03:06:03;;;;;;;14.52;10.05;;;;;;;10.06;71.02;100722.56;5020223;28;20030;-41
2021/10/29 03:08:28;;;;;;;14.82;10.63;;;;;;;10.06;71.19;100729.59;5012018;28;20116;-42
2021/10/29 03:10:54;;;;;;;13.27;9.77;;;;;;;10.06;71.12;100724.31;5013553;28;20452;-42
2021/10/29 03:13:20;;;;;;;15.43;10.80;;;;;;;10.05;70.97;100722.56;5011581;28;20029;-42
2021/10/29 03:15:48;;;;;;;14.10;10.52;;;;;;;10.05;71.22;100717.31;5011189;28;20786;-41
2021/10/29 03:18:14;;;;;;;12.90;10.05;;;;;;;10.04;71.25;100720.81;5013173;28;20040;-41
2021/10/29 03:20:39;;;;;;;16.10;11.05;;;;;;;10.03;71.29;100716.44;5011504;28;20030;-42
2021/10/29 03:23:04;;;;;;;15.77;11.50;;;;;;;10.03;71.23;100717.31;5011389;28;20036;-42
2021/10/29 03:25:30;;;;;;;14.57;10.02;;;;;;;10.04;70.91;100724.31;5013480;28;20087;-42
2021/10/29 03:27:55;;;;;;;15.30;10.93;;;;;;;10.02;71.15;100720.84;5028439;28;20505;-42
2021/10/29 03:30:21;;;;;;;16.50;10.95;;;;;;;10.03;71.15;100719.94;5032980;28;20075;-41
2021/10/29 03:32:46;;;;;;;13.38;10.75;;;;;;;10.03;70.92;100722.56;5032412;28;20107;-41
2021/10/29 03:35:12;;;;;;;13.27;9.63;;;;;;;10.01;71.25;100716.47;5036916;28;20107;-41
2021/10/29 03:40:18;;;;;;;13.05;10.20;;;;;;;10.00;71.06;100709.41;5022334;28;20025;-42
2021/10/29 03:42:54;;;;;;;14.50;10.73;;;;;;;10.00;71.08;100714.69;5026587;28;20043;-42
2021/10/29 03:45:20;;;;;;;13.57;10.48;;;;;;;10.00;71.01;100710.31;5042515;28;20446;-43
2021/10/29 03:47:52;;;;;;;12.75;9.93;;;;;;;9.98;71.20;100714.69;5019699;28;20032;-42
2021/10/29 03:50:29;;;;;;;14.20;10.40;;;;;;;9.98;71.04;100703.28;5032071;28;20421;-43
2021/10/29 03:53:08;;;;;;;14.02;10.48;;;;;;;9.98;70.96;100706.78;5030502;28;20033;-42
2021/10/29 03:55:45;;;;;;;14.43;10.63;;;;;;;9.99;71.11;100708.56;5038400;28;20448;-42
2021/10/29 03:58:10;;;;;;;16.83;11.27;;;;;;;9.97;71.04;100712.09;5020678;28;20558;-42
2021/10/29 04:00:35;;;;;;;14.23;11.25;;;;;;;9.97;71.10;100720.00;5031831;28;20116;-42
2021/10/29 04:03:03;;;;;;;15.20;10.07;;;;;;;9.97;71.13;100725.25;5042111;28;20027;-42
2021/10/29 04:05:29;;;;;;;15.45;10.73;;;;;;;9.96;71.09;100715.59;5052387;28;20117;-42
2021/10/29 04:07:55;;;;;;;14.40;10.20;;;;;;;9.96;71.18;100728.75;5042409;28;20030;-43
2021/10/29 04:10:24;;;;;;;15.10;10.52;;;;;;;9.95;71.24;100724.38;5016566;28;20033;-42
2021/10/29 04:12:51;;;;;;;15.73;11.93;;;;;;;9.94;71.04;100720.00;5024268;28;20116;-42
2021/10/29 04:15:17;;;;;;;13.88;10.30;;;;;;;9.93;71.04;100719.13;5035026;28;20029;-42
2021/10/29 04:17:42;;;;;;;12.45;9.02;;;;;;;9.93;71.03;100720.88;5009485;28;20033;-42
2021/10/29 04:20:08;;;;;;;16.17;10.32;;;;;;;9.93;71.24;100718.22;5052360;28;20131;-42
2021/10/29 04:22:33;;;;;;;17.40;10.95;;;;;;;9.92;71.11;100721.75;5036961;28;20033;-41
2021/10/29 04:24:58;;;;;;;13.32;9.98;;;;;;;9.91;70.93;100718.28;5033374;28;20397;-41
2021/10/29 04:27:30;;;;;;;13.48;10.45;;;;;;;9.92;71.04;100721.75;5038780;28;20508;-40
2021/10/29 04:29:55;;;;;;;15.13;10.15;;;;;;;9.91;70.93;100723.53;5031640;28;20029;-42
2021/10/29 04:32:21;;;;;;;14.38;10.43;;;;;;;9.91;71.19;100717.38;5030569;28;20112;-42
2021/10/29 04:34:46;;;;;;;14.73;10.30;;;;;;;9.90;71.12;100724.41;5013892;28;20035;-42
2021/10/29 04:37:11;;;;;;;14.82;10.38;;;;;;;9.90;71.24;100723.53;5029326;28;20029;-41
2021/10/29 04:39:38;;;;;;;14.27;9.75;;;;;;;9.88;71.02;100721.78;5032457;28;20477;-40
2021/10/29 04:42:04;;;;;;;14.52;10.10;;;;;;;9.87;71.19;100709.50;5025189;28;20104;-40
2021/10/29 04:44:29;;;;;;;14.73;11.10;;;;;;;9.87;70.93;100709.50;5013853;28;20546;-40
2021/10/29 04:46:54;;;;;;;14.40;9.85;;;;;;;9.87;71.24;100712.13;5026263;28;20025;-41
2021/10/29 04:49:20;;;;;;;14.65;10.20;;;;;;;9.86;71.24;100705.13;5030423;28;20029;-42
2021/10/29 04:51:45;;;;;;;15.48;11.60;;;;;;;9.86;71.25;100707.75;5013396;28;20030;-41
2021/10/29 04:54:10;;;;;;;12.48;10.18;;;;;;;9.85;71.11;100706.00;5013223;28;20515;-43
2021/10/29 04:56:36;;;;;;;14.00;9.95;;;;;;;9.86;70.90;100702.47;5012893;28;20030;-42
2021/10/29 04:59:02;;;;;;;12.82;9.98;;;;;;;9.84;71.15;100696.34;5013348;28;20030;-42
2021/10/29 05:01:27;;;;;;;14.55;10.68;;;;;;;9.84;70.94;100698.13;5026345;28;20022;-42
2021/10/29 05:03:53;;;;;;;13.68;10.00;;;;;;;9.82;71.13;100708.66;5024344;28;20025;-41
2021/10/29 05:06:18;;;;;;;15.25;10.80;;;;;;;9.83;71.20;100710.41;5032771;28;20029;-42
2021/10/29 05:08:43;;;;;;;16.10;10.57;;;;;;;9.81;70.93;100693.75;5013778;28;20033;-42
2021/10/29 05:11:09;;;;;;;13.35;10.18;;;;;;;9.81;71.09;100691.09;5024955;28;20059;-42
2021/10/29 05:13:34;;;;;;;17.55;10.50;;;;;;;9.82;71.06;100695.47;5032327;28;20029;-42
2021/10/29 05:16:00;;;;;;;14.68;10.25;;;;;;;9.80;70.94;100699.88;5010228;28;20042;-41
2021/10/29 05:18:25;;;;;;;14.88;10.25;;;;;;;9.79;71.07;100700.75;5030503;28;20107;-42
2021/10/29 05:20:51;;;;;;;13.18;10.48;;;;;;;9.79;70.84;100699.88;5030680;28;20057;-42
2021/10/29 05:23:17;;;;;;;12.15;9.93;;;;;;;9.78;71.16;100700.78;5017209;28;20107;-41
2021/10/29 05:25:42;;;;;;;15.35;10.27;;;;;;;9.80;71.18;100694.59;5022042;28;20030;-42
2021/10/29 05:28:09;;;;;;;15.05;10.70;;;;;;;9.77;71.01;100686.72;5019103;28;20029;-42
2021/10/29 05:30:34;;;;;;;14.50;11.50;;;;;;;9.76;71.05;100698.13;5030009;28;20096;-42
2021/10/29 05:32:59;;;;;;;15.25;11.18;;;;;;;9.77;71.21;100689.34;5020675;28;20144;-42
2021/10/29 05:35:26;;;;;;;15.98;11.15;;;;;;;9.75;71.06;100685.88;5014349;28;20026;-42
2021/10/29 05:37:51;;;;;;;16.00;11.75;;;;;;;9.76;70.91;100690.25;5012576;28;20025;-41
2021/10/29 05:40:17;;;;;;;15.18;11.13;;;;;;;9.75;70.85;100699.03;5014153;28;20033;-42
2021/10/29 05:42:43;;;;;;;16.40;10.55;;;;;;;9.73;71.06;100695.50;5013231;28;20026;-41
2021/10/29 05:45:10;;;;;;;15.50;10.85;;;;;;;9.73;70.93;100695.50;5029710;28;20424;-41
2021/10/29 05:47:37;;;;;;;14.35;10.75;;;;;;;9.75;70.82;100693.75;5032355;28;20072;-42
2021/10/29 05:50:05;;;;;;;16.55;11.30;;;;;;;9.73;71.09;100698.16;5025950;28;20026;-41
2021/10/29 05:52:30;;;;;;;13.60;11.05;;;;;;;9.71;70.88;100697.31;5024759;28;20025;-42
2021/10/29 05:57:23;;;;;;;16.88;11.02;;;;;;;9.71;71.02;100708.69;5024486;28;20048;-41
2021/10/29 05:59:50;;;;;;;15.90;10.98;;;;;;;9.70;71.28;100709.59;5022077;28;20036;-42
2021/10/29 06:02:16;;;;;;;15.52;11.52;;;;;;;9.70;71.01;100703.47;5028327;28;20025;-40
2021/10/29 06:04:41;;;;;;;14.88;10.98;;;;;;;9.68;71.10;100710.47;5012306;28;20106;-44
2021/10/29 06:07:07;;;;;;;15.70;10.85;;;;;;;9.68;70.97;100715.75;5018532;28;20104;-40
2021/10/29 06:09:32;;;;;;;15.68;11.70;;;;;;;9.69;70.94;100720.13;5026183;28;20029;-41
2021/10/29 06:11:58;;;;;;;16.20;11.77;;;;;;;9.68;70.83;100718.38;5028257;28;20036;-42
2021/10/29 06:14:24;;;;;;;15.68;11.27;;;;;;;9.67;70.97;100716.63;5014985;28;20473;-41
2021/10/29 06:16:50;;;;;;;15.80;11.15;;;;;;;9.66;71.00;100715.75;5024925;28;20033;-42
2021/10/29 06:19:16;;;;;;;16.63;11.05;;;;;;;9.65;70.90;100714.00;5026108;28;20025;-42
2021/10/29 06:21:50;;;;;;;14.25;10.90;;;;;;;9.66;70.80;100714.84;4994693;28;20675;-42
2021/10/29 06:24:17;;;;;;;18.70;11.77;;;;;;;9.63;70.82;100711.38;5027151;28;20029;-42
2021/10/29 06:26:49;;;;;;;13.50;11.10;;;;;;;9.64;70.77;100714.91;5034793;28;20070;-41
2021/10/29 06:29:15;;;;;;;17.40;11.85;;;;;;;9.64;70.86;100720.16;5032698;28;20040;-40
2021/10/29 06:31:41;;;;;;;13.52;10.38;;;;;;;9.63;70.87;100716.66;5042783;28;20029;-41
2021/10/29 06:34:06;;;;;;;13.55;10.45;;;;;;;9.61;70.75;100707.88;5029702;28;20489;-40
2021/10/29 06:36:32;;;;;;;13.43;10.50;;;;;;;9.61;70.82;100713.13;5031691;28;20039;-42
2021/10/29 06:38:59;;;;;;;16.10;11.30;;;;;;;9.61;70.85;100705.22;5028872;28;20028;-41
2021/10/29 06:41:25;;;;;;;15.77;11.13;;;;;;;9.64;70.94;100714.91;5028854;28;20029;-42
2021/10/29 06:44:06;;;;;;;15.80;11.27;;;;;;;9.61;70.95;100718.41;5026640;28;20032;-42
2021/10/29 07:05:27;;;;;;;16.70;9.77;;;;;;;9.55;70.83;100714.91;5009283;28;20535;-42
2021/10/29 07:40:45;;;;;;;16.08;10.63;;;;;;;9.50;71.06;100707.91;5031093;28;20037;-41
2021/10/29 07:43:14;;;;;;;15.27;11.30;;;;;;;9.49;71.11;100702.66;5026665;28;20033;-41
2021/10/29 07:45:41;;;;;;;14.52;10.93;;;;;;;9.50;71.08;100712.28;5025517;28;20280;-41
2021/10/29 07:48:06;;;;;;;14.10;10.10;;;;;;;9.49;71.07;100716.72;5034819;28;20032;-40
2021/10/29 07:50:32;;;;;;;13.93;10.15;;;;;;;9.49;71.13;100711.44;5026295;28;20029;-41
2021/10/29 07:52:58;;;;;;;15.80;11.43;;;;;;;9.50;70.92;100714.94;5023766;28;20112;-40
2021/10/29 07:55:24;;;;;;;16.27;11.45;;;;;;;9.51;70.87;100716.72;5022298;28;20389;-42
2021/10/29 07:57:51;;;;;;;16.25;11.40;;;;;;;9.51;70.93;100716.72;5032696;28;21484;-42
2021/10/29 08:00:20;;;;;;;16.60;11.02;;;;;;;9.51;71.03;100711.44;5029269;28;20044;-41
2021/10/29 08:02:47;;;;;;;17.08;11.13;;;;;;;9.50;70.91;100712.28;5044726;28;20029;-41
2021/10/29 08:05:12;;;;;;;15.05;10.10;;;;;;;9.52;71.01;100718.44;5030013;28;20025;-41
2021/10/29 08:07:38;;;;;;;14.30;10.27;;;;;;;9.49;70.92;100714.06;5036367;28;20112;-41
2021/10/29 08:10:05;;;;;;;15.50;11.32;;;;;;;9.51;71.04;100721.97;5038697;28;20090;-41
2021/10/29 08:12:32;;;;;;;15.65;11.18;;;;;;;9.52;71.00;100725.47;5022106;28;20048;-41
2021/10/29 08:14:57;;;;;;;16.50;11.38;;;;;;;9.54;70.97;100731.59;5032338;28;20087;-41
2021/10/29 08:17:22;;;;;;;13.52;11.05;;;;;;;9.51;70.57;100721.97;5033507;28;20029;-41
2021/10/29 08:19:48;;;;;;;16.17;11.23;;;;;;;9.53;70.99;100728.09;5025254;28;20465;-41
2021/10/29 08:22:13;;;;;;;16.55;10.60;;;;;;;9.52;71.01;100718.44;5028780;28;20048;-41
2021/10/29 08:24:40;;;;;;;19.77;11.73;;;;;;;9.53;71.15;100720.19;5021554;28;20036;-41
2021/10/29 08:27:07;;;;;;;16.33;11.95;;;;;;;9.53;70.99;100725.47;5025230;28;20040;-47
2021/10/29 08:29:32;;;;;;;16.35;10.65;;;;;;;9.53;70.74;100725.47;5044546;28;20033;-41
2021/10/29 08:31:58;;;;;;;15.48;11.73;;;;;;;9.54;71.04;100727.19;5024559;28;20025;-41
2021/10/29 08:34:26;;;;;;;14.70;11.07;;;;;;;9.52;70.96;100721.09;5021460;28;20676;-41
2021/10/29 08:36:56;;;;;;;14.02;10.77;;;;;;;9.55;70.92;100705.28;5025087;28;20396;-41
2021/10/29 08:39:22;;;;;;;15.77;11.73;;;;;;;9.55;70.83;100710.53;5066330;23;20045;-41
2021/10/29 08:41:48;;;;;;;15.48;11.00;;;;;;;9.52;71.21;100710.53;5047626;28;20021;-40
2021/10/29 08:44:14;;;;;;;17.48;11.50;;;;;;;9.52;70.81;100713.19;5047974;28;20032;-40
2021/10/29 08:46:40;;;;;;;17.27;11.13;;;;;;;9.54;71.07;100707.91;5053375;28;20032;-39
2021/10/29 08:49:07;;;;;;;16.05;11.32;;;;;;;9.53;71.22;100704.38;5023227;28;20056;-41
2021/10/29 08:51:32;;;;;;;15.65;11.77;;;;;;;9.53;71.02;100706.16;5017224;28;20026;-40
2021/10/29 08:53:58;;;;;;;14.90;11.32;;;;;;;9.52;71.06;100710.53;5013608;28;20033;-41
2021/10/29 08:56:27;;;;;;;16.23;12.15;;;;;;;9.51;71.13;100703.53;5012316;28;20037;-41
2021/10/29 08:59:11;;;;;;;16.98;11.85;;;;;;;9.52;71.14;100707.03;5018130;28;20418;-42
2021/10/29 09:04:54;;;;;;;15.05;10.40;;;;;;;9.52;71.28;100699.13;5013109;28;20053;-44
2021/10/29 09:32:29;;;;;;;13.52;10.10;;;;;;;9.55;71.49;100667.53;5027133;28;20036;-41
2021/10/29 09:34:59;;;;;;;14.48;10.57;;;;;;;9.55;71.68;100670.16;5032036;28;20604;-41
2021/10/29 09:37:34;;;;;;;15.02;11.10;;;;;;;9.55;71.48;100668.41;5030630;28;20473;-40
2021/10/29 09:40:00;;;;;;;15.93;11.48;;;;;;;9.55;71.41;100671.03;5032138;28;20112;-41
2021/10/29 09:42:33;;;;;;;15.80;11.68;;;;;;;9.56;71.46;100672.78;5031490;28;20108;-40
2021/10/29 09:45:10;;;;;;;13.80;10.05;;;;;;;9.57;71.48;100663.13;5032550;28;20029;-40
2021/10/29 09:47:36;;;;;;;16.80;9.98;;;;;;;9.57;71.38;100665.78;5022428;28;20022;-41
2021/10/29 09:50:12;;;;;;;13.18;10.52;;;;;;;9.56;71.51;100664.00;5029915;28;20025;-40
2021/10/29 09:57:35;;;;;;;4.00;2.30;;;;;;;9.47;72.94;100657.03;5015393;28;20037;-40
2021/10/29 10:00:05;;;;;;;6.60;4.10;;;;;;;9.55;73.59;100649.97;5016967;28;20112;-42
2021/10/29 10:02:32;;;;;;;4.37;2.83;;;;;;;9.60;73.82;100652.56;5017326;28;20492;-42
2021/10/29 10:04:59;;;;;;;4.40;2.67;;;;;;;9.61;73.25;100657.81;5028263;28;20753;-42
2021/10/29 10:07:30;;;;;;;3.42;2.38;;;;;;;9.62;73.22;100656.09;5016223;28;20104;-43
2021/10/29 10:09:57;;;;;;;;;;;;;;;9.62;72.78;100635.91;5030485;28;20056;-42
2021/10/29 10:12:23;;;;;;;2.35;1.98;;;;;;;9.62;73.15;100629.75;5012200;28;19940;-42
2021/10/29 10:14:52;;;;;;;5.50;3.00;;;;;;;9.63;72.99;100632.38;5011591;28;20397;-42
2021/10/29 10:17:19;;;;;;;4.55;3.10;;;;;;;9.64;72.79;100633.25;5028464;28;20087;-43
2021/10/29 10:19:45;;;;;;;2.45;2.00;;;;;;;9.66;72.97;100625.31;5012163;28;20145;-43
2021/10/29 10:22:14;;;;;;;3.63;2.63;;;;;;;9.66;72.65;100615.69;5031179;28;20516;-43
2021/10/29 10:24:40;;;;;;;3.50;2.42;;;;;;;9.67;72.59;100621.81;5030685;28;20041;-43
2021/10/29 10:29:58;;;;;;;2.75;1.92;;;;;;;9.69;72.47;100612.13;5030648;28;20507;-42
2021/10/29 10:43:24;;;;;;;1.95;1.80;;;;;;;9.73;72.38;100603.34;5021096;28;20044;-42
2021/10/29 10:48:26;;;;;;;4.05;3.47;;;;;;;9.74;72.45;100591.94;5035067;28;20041;-43
2021/10/29 10:50:58;;;;;;;2.55;1.92;;;;;;;9.74;72.46;100592.78;5033044;28;20033;-43
2021/10/29 10:53:39;;;;;;;4.22;3.03;;;;;;;9.75;72.34;100604.22;5032485;28;20065;-43
2021/10/29 10:56:19;;;;;;;2.55;2.15;;;;;;;9.76;72.31;100592.78;5027528;28;20030;-42
2021/10/29 10:59:07;;;;;;;3.92;2.70;;;;;;;9.75;72.31;100591.03;5032173;28;20037;-42
2021/10/29 11:02:10;;;;;;;2.95;2.05;;;;;;;9.78;72.24;100587.50;5032800;28;20504;-43
2021/10/29 11:10:08;;;;;;;2.63;2.03;;;;;;;9.79;72.21;100584.88;5021678;28;20128;-42
2021/10/29 11:12:44;;;;;;;3.25;2.03;;;;;;;9.80;72.14;100578.69;5022984;28;20126;-42
2021/10/29 11:15:14;;;;;;;2.58;2.17;;;;;;;9.81;72.30;100569.94;5021525;28;20021;-43
2021/10/29 11:17:48;;;;;;;3.45;2.55;;;;;;;9.81;72.24;100567.31;5020949;28;20025;-43
2021/10/29 11:20:50;;;;;;;3.13;2.05;;;;;;;9.82;72.03;100569.03;5020316;28;20025;-41
2021/10/29 11:23:31;;;;;;;3.03;2.42;;;;;;;9.82;72.23;100563.78;5008709;28;20029;-42
2021/10/29 11:26:05;;;;;;;2.38;2.17;;;;;;;9.83;72.22;100565.50;5024696;28;20033;-43
2021/10/29 11:28:43;;;;;;;3.15;1.73;;;;;;;9.85;72.13;100560.25;5027166;28;20029;-43
2021/10/29 11:31:12;;;;;;;2.75;2.53;;;;;;;9.84;72.20;100562.00;5017976;28;20029;-43
2021/10/29 11:33:42;;;;;;;2.38;1.85;;;;;;;9.85;72.25;100563.75;5021880;28;20052;-43
2021/10/29 11:36:10;;;;;;;3.03;2.13;;;;;;;9.86;72.13;100561.97;5028036;28;20032;-43
2021/10/29 11:38:37;;;;;;;3.50;2.10;;;;;;;9.85;72.12;100558.50;5026080;28;20118;-43
2021/10/29 11:41:05;;;;;;;1.85;1.67;;;;;;;9.86;72.02;100544.41;5025903;28;20026;-43
2021/10/29 11:43:33;;;;;;;3.67;3.15;;;;;;;9.87;72.16;100546.16;5022300;28;20033;-43
2021/10/29 11:46:00;;;;;;;3.67;1.85;;;;;;;9.87;72.09;100538.25;5028507;28;20057;-42
2021/10/29 11:48:26;;;;;;;3.10;2.25;;;;;;;9.87;71.93;100535.63;5024977;28;20025;-42
2021/10/29 11:51:08;;;;;;;3.13;2.22;;;;;;;9.90;72.24;100542.63;5026722;28;20044;-42
2021/10/29 11:53:35;;;;;;;2.83;1.98;;;;;;;9.90;72.26;100533.88;5029997;28;20033;-43
2021/10/29 11:56:04;;;;;;;2.38;2.10;;;;;;;9.91;72.10;100527.69;5014128;28;20026;-43
2021/10/29 11:58:43;;;;;;;2.13;1.83;;;;;;;9.92;72.15;100530.31;5026806;28;20115;-43
2021/10/29 12:01:32;;;;;;;2.42;2.10;;;;;;;9.92;72.04;100518.91;5022356;28;20103;-43
2021/10/29 12:09:27;;;;;;;3.92;2.30;;;;;;;9.94;72.29;100503.97;5026540;28;20079;-42
2021/10/29 12:11:57;;;;;;;2.90;2.28;;;;;;;9.95;72.10;100508.34;5014545;28;20137;-42
2021/10/29 12:14:32;;;;;;;2.88;2.47;;;;;;;9.94;72.04;100491.66;5016129;28;20033;-41
2021/10/29 12:17:31;;;;;;;2.28;1.77;;;;;;;9.96;71.97;100495.16;5023187;28;20038;-43
2021/10/29 12:20:00;;;;;;;2.65;2.15;;;;;;;9.96;72.26;100494.28;5014536;28;20038;-42
2021/10/29 12:25:17;;;;;;;2.97;2.65;;;;;;;9.98;72.19;100481.97;5014824;28;20022;-44
2021/10/29 12:27:47;;;;;;;2.55;1.98;;;;;;;9.98;72.32;100479.34;5026205;28;20029;-42
2021/10/29 12:30:38;;;;;;;2.65;2.17;;;;;;;9.99;72.23;100475.81;5025761;28;20488;-43
2021/10/29 12:53:03;;;;;;;3.92;2.53;;;;;;;10.05;72.30;100444.13;5023860;28;20052;-43
2021/10/29 13:03:45;;;;;;;2.45;1.95;;;;;;;10.09;72.37;100415.97;5011142;28;20037;-43
2021/10/29 13:06:15;;;;;;;2.60;2.38;;;;;;;10.08;72.53;100412.50;5019448;28;20018;-43
2021/10/29 13:08:41;;;;;;;3.15;1.83;;;;;;;10.11;72.57;100409.78;5015132;28;20029;-43
2021/10/29 13:11:11;;;;;;;2.60;1.75;;;;;;;10.11;72.33;100407.16;5015658;28;20536;-43
2021/10/29 13:13:43;;;;;;;2.38;2.17;;;;;;;10.11;72.27;100391.34;5022889;28;20572;-43
2021/10/29 13:16:14;;;;;;;2.85;2.47;;;;;;;10.13;72.48;100386.06;5022858;28;20042;-43
2021/10/29 13:19:06;;;;;;;2.88;1.88;;;;;;;10.15;72.29;100392.19;5016744;28;20076;-43
2021/10/29 13:22:15;;;;;;;2.28;1.80;;;;;;;10.14;72.54;100388.69;5016184;28;20040;-43
2021/10/29 13:34:19;;;;;;;2.65;2.15;;;;;;;10.16;71.81;100388.66;5022552;28;20543;-42
2021/10/29 13:35:08;;;;;;;3.25;2.10;;;;;;;10.18;72.41;100380.75;5016676;28;20048;-43
2021/10/29 13:53:50;;;;;;;2.88;1.92;;;;;;;10.22;72.48;100387.72;5020210;28;20037;-43
2021/10/29 14:02:01;;;;;;;2.53;2.28;;;;;;;10.24;72.35;100391.22;5014035;28;20030;-43
2021/10/29 14:29:10;;;;;;;2.22;1.95;;;;;;;10.30;72.35;100396.41;5018022;28;20034;-44
2021/10/29 14:31:58;;;;;;;2.78;2.50;;;;;;;10.31;72.46;100398.16;5017605;28;20094;-43
2021/10/29 14:34:34;;;;;;;3.22;2.58;;;;;;;10.31;72.21;100397.28;5018862;28;20029;-43
2021/10/29 14:37:14;;;;;;;2.97;2.30;;;;;;;10.32;72.38;100404.28;5018459;28;20040;-43
2021/10/29 14:42:23;;;;;;;3.30;2.08;;;;;;;10.33;72.27;100390.22;5024618;28;20060;-43
2021/10/29 14:44:52;;;;;;;2.15;1.88;;;;;;;10.33;72.17;100395.47;5031068;28;20036;-43
2021/10/29 15:01:06;;;;;;;2.22;2.00;;;;;;;10.36;71.88;100398.97;5011749;28;20121;-43
2021/10/29 15:06:49;;;;;;;2.63;2.10;;;;;;;10.37;72.28;100397.22;5011421;28;20050;-43